createdAt,value
2019-01-26T00:06:42.493Z,14.37
2019-01-26T00:09:16.417Z,13.17
2019-01-26T00:11:48.859Z,14.67
2019-01-26T00:14:35.920Z,15.33
2019-01-26T00:17:05.325Z,14.80
2019-01-26T00:19:54.697Z,13.37
2019-01-26T00:22:29.285Z,14.47
2019-01-26T00:25:12.340Z,14.83
2019-01-26T00:40:17.597Z,12.27
2019-01-26T00:42:49.842Z,13.87
2019-01-26T00:45:52.388Z,13.80
2019-01-26T00:48:25.650Z,11.57
2019-01-26T00:53:35.530Z,13.00
2019-01-26T00:56:08.659Z,11.63
2019-01-26T01:04:25.906Z,11.73
2019-01-26T01:07:16.858Z,13.23
2019-01-26T01:09:46.371Z,11.33
2019-01-26T01:12:29.928Z,12.50
2019-01-26T01:17:25.992Z,11.13
2019-01-26T01:20:01.639Z,11.03
2019-01-26T01:23:01.825Z,10.80
2019-01-26T01:31:38.614Z,9.87
2019-01-26T01:34:08.810Z,11.17
2019-01-26T01:36:44.504Z,10.83
2019-01-26T01:39:25.682Z,10.07
2019-01-26T01:42:34.840Z,9.57
2019-01-26T01:45:50.277Z,10.23
2019-01-26T01:48:20.196Z,10.37
2019-01-26T01:51:19.599Z,11.03
2019-01-26T02:05:16.219Z,10.23
2019-01-26T02:07:45.601Z,10.03
2019-01-26T02:10:41.995Z,10.27
2019-01-26T02:13:15.615Z,10.07
2019-01-26T02:16:18.330Z,9.37
2019-01-26T02:27:06.595Z,9.13
2019-01-26T02:29:36.686Z,8.60
2019-01-26T02:32:06.839Z,8.27
2019-01-26T02:34:55.287Z,8.20
2019-01-26T02:37:24.731Z,8.07
2019-01-26T02:39:57.282Z,8.00
2019-01-26T02:42:27.233Z,7.90
2019-01-26T02:50:31.978Z,9.67
2019-01-26T02:55:52.830Z,8.50
2019-01-26T03:01:23.761Z,9.23
2019-01-26T03:03:57.079Z,9.03
2019-01-26T03:09:17.422Z,9.20
2019-01-26T03:11:47.342Z,8.90
2019-01-26T03:14:43.077Z,10.50
2019-01-26T03:17:16.468Z,8.93
2019-01-26T03:20:06.513Z,9.93
2019-01-26T03:23:14.410Z,9.53
2019-01-26T03:28:19.204Z,9.50
2019-01-26T03:30:48.915Z,9.63
2019-01-26T03:33:18.328Z,9.63
2019-01-26T03:35:51.267Z,9.17
2019-01-26T03:38:21.319Z,9.70
2019-01-26T03:40:55.140Z,9.00
2019-01-26T03:43:45.206Z,8.90
2019-01-26T03:51:56.745Z,9.70
2019-01-26T04:00:51.167Z,8.67
2019-01-26T04:03:28.707Z,9.00
2019-01-26T04:12:08.517Z,8.53
2019-01-26T04:14:44.167Z,8.50
2019-01-26T04:17:54.501Z,7.97
2019-01-26T04:20:59.339Z,8.20
2019-01-26T04:23:58.342Z,8.43
2019-01-26T04:26:46.924Z,8.80
2019-01-26T04:32:25.083Z,8.20
2019-01-26T04:41:09.758Z,8.37
2019-01-26T04:47:00.213Z,8.67
2019-01-26T04:49:55.041Z,8.60
2019-01-26T04:52:51.981Z,8.57
2019-01-26T04:58:23.507Z,8.53
2019-01-26T05:01:15.870Z,7.97
2019-01-26T05:07:20.250Z,8.57
2019-01-26T05:09:53.867Z,8.60
2019-01-26T05:12:44.644Z,7.53
2019-01-26T05:15:46.862Z,8.57
2019-01-26T05:18:17.175Z,8.93
2019-01-26T05:20:47.007Z,8.90
2019-01-26T05:26:29.903Z,9.03
2019-01-26T05:29:02.721Z,9.57
2019-01-26T05:31:32.307Z,9.30
2019-01-26T05:37:09.682Z,10.80
2019-01-26T05:39:48.837Z,10.33
2019-01-26T05:42:19.532Z,9.50
2019-01-26T05:44:49.357Z,8.80
2019-01-26T05:47:56.637Z,8.43
2019-01-26T05:49:57.380Z,9.13
2019-01-26T05:52:26.906Z,9.40
2019-01-26T05:55:16.871Z,8.77
2019-01-26T05:57:46.882Z,12.10
2019-01-26T06:00:37.327Z,11.67
2019-01-26T06:03:12.712Z,12.03
2019-01-26T06:05:42.472Z,12.07
2019-01-26T06:08:14.798Z,11.17
2019-01-26T06:10:47.018Z,10.10
2019-01-26T06:13:16.578Z,10.77
2019-01-26T06:15:46.030Z,10.00
2019-01-26T06:18:16.979Z,10.40
2019-01-26T06:21:07.169Z,9.93
2019-01-26T06:23:48.807Z,10.93
2019-01-26T06:26:39.631Z,10.90
2019-01-26T06:29:09.275Z,11.07
2019-01-26T06:31:39.157Z,11.27
2019-01-26T06:34:08.969Z,12.07
2019-01-26T06:36:38.412Z,12.70
2019-01-26T06:39:08.625Z,11.20
2019-01-26T06:41:41.618Z,12.90
2019-01-26T06:47:20.690Z,12.30
2019-01-26T06:49:50.755Z,12.40
2019-01-26T06:52:39.921Z,12.33
2019-01-26T06:55:11.415Z,11.27
2019-01-26T07:00:32.405Z,11.27
2019-01-26T07:03:01.878Z,10.97
2019-01-26T07:05:50.284Z,11.03
2019-01-26T07:08:21.314Z,11.00
2019-01-26T07:11:09.811Z,8.40
2019-01-26T07:16:34.357Z,8.50
2019-01-26T07:19:03.965Z,7.80
2019-01-26T07:21:33.462Z,7.57
2019-01-26T07:24:02.899Z,8.40
2019-01-26T07:29:15.012Z,8.77
2019-01-26T07:31:44.692Z,9.87
2019-01-26T07:34:33.184Z,8.83
2019-01-26T07:37:02.716Z,8.80
2019-01-26T07:39:32.182Z,9.60
2019-01-26T07:42:01.619Z,9.97
2019-01-26T07:44:50.018Z,10.73
2019-01-26T07:47:24.179Z,8.53
2019-01-26T07:50:14.161Z,8.87
2019-01-26T07:52:55.624Z,8.93
2019-01-26T07:55:36.929Z,9.00
2019-01-26T07:58:07.456Z,9.67
2019-01-26T08:00:37.574Z,8.07
2019-01-26T08:03:08.188Z,8.67
2019-01-26T08:05:37.763Z,7.43
2019-01-26T08:08:12.192Z,7.20
2019-01-26T08:11:00.970Z,7.03
2019-01-26T08:13:49.753Z,6.57
2019-01-26T08:22:04.837Z,5.80
2019-01-26T08:24:53.783Z,5.30
2019-01-26T08:27:36.391Z,5.10
2019-01-26T08:30:28.130Z,5.47
2019-01-26T08:33:16.926Z,5.70
2019-01-26T08:35:46.926Z,5.13
2019-01-26T08:38:17.207Z,5.33
2019-01-26T08:40:47.506Z,5.73
2019-01-26T08:43:19.573Z,5.20
2019-01-26T08:45:51.831Z,5.87
2019-01-26T08:50:57.232Z,5.60
2019-01-26T08:53:27.481Z,5.03
2019-01-26T08:56:16.110Z,6.10
2019-01-26T09:04:28.104Z,5.80
2019-01-26T09:07:00.935Z,5.97
2019-01-26T09:09:39.299Z,6.10
2019-01-26T09:12:14.242Z,5.57
2019-01-26T09:14:43.959Z,6.07
2019-01-26T09:17:13.925Z,5.93
2019-01-26T09:20:04.116Z,7.40
2019-01-26T09:22:36.780Z,7.57
2019-01-26T09:25:35.732Z,6.93
2019-01-26T09:28:00.971Z,7.23
2019-01-26T09:30:30.566Z,7.17
2019-01-26T09:33:00.289Z,7.57
2019-01-26T09:35:30.101Z,7.27
2019-01-26T09:38:02.957Z,7.67
2019-01-26T09:40:33.006Z,7.60
2019-01-26T09:43:02.804Z,8.07
2019-01-26T09:45:51.665Z,8.47
2019-01-26T09:48:21.216Z,8.63
2019-01-26T09:50:50.823Z,8.00
2019-01-26T09:53:20.539Z,7.30
2019-01-26T09:56:01.171Z,8.20
2019-01-26T10:01:09.931Z,6.87
2019-01-26T10:03:39.578Z,6.60
2019-01-26T10:06:09.201Z,5.33
2019-01-26T10:08:38.758Z,6.57
2019-01-26T10:11:08.786Z,5.93
2019-01-26T10:13:38.421Z,7.73
2019-01-26T10:16:08.027Z,6.37
2019-01-26T10:18:37.484Z,7.47
2019-01-26T10:21:07.390Z,7.60
2019-01-26T10:23:56.018Z,8.77
2019-01-26T10:26:25.705Z,6.80
2019-01-26T10:28:55.575Z,7.43
2019-01-26T10:31:25.262Z,8.00
2019-01-26T10:39:31.068Z,7.47
2019-01-26T10:42:19.550Z,8.13
2019-01-26T10:47:24.260Z,7.23
2019-01-26T10:52:47.955Z,7.87
2019-01-26T10:58:23.538Z,7.50
2019-01-26T11:01:12.965Z,6.60
2019-01-26T11:03:42.580Z,7.67
2019-01-26T11:06:27.223Z,8.17
2019-01-26T11:08:56.803Z,7.50
2019-01-26T11:11:26.481Z,8.13
2019-01-26T11:13:56.242Z,8.23
2019-01-26T11:16:25.918Z,7.70
2019-01-26T11:18:55.710Z,5.93
2019-01-26T11:21:25.520Z,6.27
2019-01-26T11:27:05.579Z,6.20
2019-01-26T11:29:35.439Z,6.90
2019-01-26T11:32:07.270Z,6.37
2019-01-26T11:34:37.051Z,6.33
2019-01-26T11:37:08.778Z,5.93
2019-01-26T11:45:44.338Z,6.63
2019-01-26T11:48:34.607Z,5.23
2019-01-26T11:51:26.473Z,4.97
2019-01-26T11:54:16.313Z,4.83
2019-01-26T11:57:04.936Z,5.47
2019-01-26T11:59:47.434Z,6.33
2019-01-26T12:02:29.991Z,5.90
2019-01-26T12:05:17.952Z,6.07
2019-01-26T12:07:47.701Z,5.23
2019-01-26T12:10:17.180Z,6.53
2019-01-26T12:12:46.870Z,5.90
2019-01-26T12:15:17.375Z,6.33
2019-01-26T12:17:46.934Z,6.37
2019-01-26T12:20:17.343Z,7.03
2019-01-26T12:22:46.915Z,6.40
2019-01-26T12:25:16.583Z,6.47
2019-01-26T12:27:46.593Z,6.27
2019-01-26T12:30:19.883Z,6.40
2019-01-26T12:32:49.671Z,5.70
2019-01-26T12:35:22.216Z,6.30
2019-01-26T12:38:10.667Z,6.10
2019-01-26T12:40:59.414Z,6.47
2019-01-26T12:43:40.402Z,5.37
2019-01-26T12:46:10.413Z,5.07
2019-01-26T12:48:40.190Z,6.00
2019-01-26T12:51:09.925Z,5.70
2019-01-26T12:53:58.606Z,5.63
2019-01-26T12:56:28.842Z,6.70
2019-01-26T12:58:58.532Z,5.67
2019-01-26T13:04:17.260Z,5.37
2019-01-26T13:06:46.802Z,6.37
2019-01-26T13:09:16.422Z,5.33
2019-01-26T13:11:46.640Z,5.47
2019-01-26T13:14:16.262Z,5.50
2019-01-26T13:17:04.940Z,4.83
2019-01-26T13:19:36.894Z,5.70
2019-01-26T13:22:07.094Z,5.43
2019-01-26T13:24:36.888Z,5.60
2019-01-26T13:27:06.553Z,5.67
2019-01-26T13:32:14.022Z,5.20
2019-01-26T13:34:55.486Z,5.20
2019-01-26T13:40:21.334Z,4.93
2019-01-26T13:43:09.884Z,6.33
2019-01-26T13:48:15.208Z,5.87
2019-01-26T13:50:55.789Z,5.97
2019-01-26T13:53:26.728Z,6.20
2019-01-26T13:55:56.765Z,6.17
2019-01-26T13:58:45.570Z,6.10
2019-01-26T14:01:15.714Z,6.00
2019-01-26T14:03:45.620Z,5.93
2019-01-26T14:06:15.749Z,5.77
2019-01-26T14:08:45.380Z,6.03
2019-01-26T14:11:15.265Z,6.47
2019-01-26T14:13:45.037Z,6.37
2019-01-26T14:19:05.475Z,5.73
2019-01-26T14:21:35.319Z,5.67
2019-01-26T14:24:07.867Z,6.20
2019-01-26T14:26:40.066Z,5.90
2019-01-26T14:29:19.562Z,6.60
2019-01-26T14:31:50.042Z,6.37
2019-01-26T14:34:22.898Z,6.73
2019-01-26T14:36:52.781Z,7.20
2019-01-26T14:40:03.967Z,7.43
2019-01-26T14:42:45.399Z,5.93
2019-01-26T14:45:15.765Z,6.57
2019-01-26T14:48:05.897Z,6.40
2019-01-26T14:56:04.180Z,7.53
2019-01-26T14:59:13.267Z,6.63
2019-01-26T15:01:56.527Z,6.70
2019-01-26T15:04:29.220Z,7.23
2019-01-26T15:10:06.926Z,6.67
2019-01-26T15:12:37.266Z,7.43
2019-01-26T15:15:31.139Z,6.23
2019-01-26T15:18:01.481Z,6.90
2019-01-26T15:23:22.534Z,7.30
2019-01-26T15:25:57.634Z,6.50
2019-01-26T15:28:27.263Z,7.63
2019-01-26T15:31:37.045Z,7.17
2019-01-26T15:34:26.398Z,7.50
2019-01-26T15:36:56.532Z,6.93
2019-01-26T15:39:26.087Z,6.67
2019-01-26T15:42:16.313Z,7.47
2019-01-26T15:45:20.616Z,9.88
2019-01-26T15:47:37.863Z,9.20
2019-01-26T15:50:12.993Z,7.47
2019-01-26T15:55:24.005Z,7.83
2019-01-26T15:57:53.479Z,8.03
2019-01-26T16:03:57.372Z,7.70
2019-01-26T16:06:27.061Z,7.13
2019-01-26T16:08:56.641Z,7.27
2019-01-26T16:11:26.770Z,7.63
2019-01-26T16:17:13.191Z,7.27
2019-01-26T16:28:08.805Z,9.27
2019-01-26T16:30:38.331Z,8.40
2019-01-26T16:33:07.763Z,9.43
2019-01-26T16:35:48.846Z,9.30
2019-01-26T16:38:19.359Z,9.33
2019-01-26T16:41:08.624Z,8.17
2019-01-26T16:43:58.164Z,9.50
2019-01-26T16:46:28.220Z,8.93
2019-01-26T16:48:57.987Z,8.93
2019-01-26T16:51:30.728Z,9.80
2019-01-26T16:54:00.921Z,9.07
2019-01-26T16:56:32.962Z,8.57
2019-01-26T17:02:07.701Z,9.50
2019-01-26T17:04:57.205Z,9.40
2019-01-26T17:10:01.746Z,8.80
2019-01-26T17:12:51.806Z,9.70
2019-01-26T17:15:22.025Z,9.43
2019-01-26T17:17:53.080Z,9.00
2019-01-26T17:20:34.595Z,8.93
2019-01-26T17:22:59.890Z,9.57
2019-01-26T17:25:30.062Z,10.10
2019-01-26T17:28:00.106Z,9.87
2019-01-26T17:30:52.762Z,10.30
2019-01-26T17:33:23.014Z,10.07
2019-01-26T17:35:52.508Z,10.40
2019-01-26T17:38:22.057Z,9.97
2019-01-26T17:40:55.160Z,10.43
2019-01-26T17:43:25.413Z,9.30
2019-01-26T17:45:57.595Z,8.67
2019-01-26T17:57:13.377Z,8.93
2019-01-26T18:00:03.530Z,8.77
2019-01-26T18:02:33.384Z,7.33
2019-01-26T18:05:05.933Z,7.97
2019-01-26T18:07:35.501Z,8.30
2019-01-26T18:13:01.009Z,8.13
2019-01-26T18:18:40.753Z,7.57
2019-01-26T18:21:56.609Z,7.70
2019-01-26T18:24:26.316Z,7.47
2019-01-26T18:27:26.015Z,6.47
2019-01-26T18:35:57.911Z,7.70
2019-01-26T18:38:28.524Z,7.87
2019-01-26T18:40:57.962Z,8.40
2019-01-26T18:46:24.037Z,6.73
2019-01-26T18:49:15.833Z,6.50
2019-01-26T18:51:45.034Z,7.00
2019-01-26T18:54:30.416Z,7.10
2019-01-26T18:56:50.277Z,7.03
2019-01-26T18:59:19.793Z,5.63
2019-01-26T19:01:49.231Z,6.00
2019-01-26T19:04:34.320Z,6.63
2019-01-26T19:09:52.172Z,5.63
2019-01-26T19:15:44.072Z,6.27
2019-01-26T19:18:13.911Z,6.53
2019-01-26T19:26:16.519Z,6.80
2019-01-26T19:28:46.060Z,6.03
2019-01-26T19:31:15.653Z,6.43
2019-01-26T19:34:06.990Z,6.63
2019-01-26T19:36:36.541Z,7.30
2019-01-26T19:39:27.240Z,5.67
2019-01-26T19:41:56.933Z,6.33
2019-01-26T19:47:07.684Z,7.47
2019-01-26T19:49:37.598Z,7.43
2019-01-26T19:52:07.372Z,6.37
2019-01-26T19:55:24.692Z,7.60
2019-01-26T20:03:58.667Z,6.90
2019-01-26T20:09:53.175Z,7.33
2019-01-26T20:12:24.757Z,7.37
2019-01-26T20:14:54.207Z,5.93
2019-01-26T20:17:23.670Z,8.20
2019-01-26T20:19:53.092Z,6.37
2019-01-26T20:22:45.800Z,7.07
2019-01-26T20:25:20.910Z,6.50
2019-01-26T20:27:53.892Z,6.10
2019-01-26T20:33:53.759Z,6.27
2019-01-26T20:36:23.998Z,7.33
2019-01-26T20:39:13.803Z,6.40
2019-01-26T20:41:43.300Z,6.13
2019-01-26T20:44:13.077Z,6.73
2019-01-26T20:47:03.374Z,5.87
2019-01-26T20:50:09.970Z,5.80
2019-01-26T20:52:50.368Z,5.93
2019-01-26T20:55:19.782Z,5.20
2019-01-26T20:58:08.850Z,6.63
2019-01-26T21:00:38.492Z,5.53
2019-01-26T21:03:07.948Z,6.20
2019-01-26T21:06:07.009Z,7.77
2019-01-26T21:08:36.525Z,7.33
2019-01-26T21:11:28.673Z,8.17
2019-01-26T21:16:52.189Z,7.57
2019-01-26T21:19:21.650Z,7.17
2019-01-26T21:21:51.121Z,6.73
2019-01-26T21:24:20.626Z,6.97
2019-01-26T21:26:50.057Z,6.83
2019-01-26T21:29:20.971Z,5.70
2019-01-26T21:31:50.502Z,5.83
2019-01-26T21:34:19.944Z,5.20
2019-01-26T21:37:28.883Z,4.87
2019-01-26T21:40:21.127Z,5.53
2019-01-26T21:42:50.875Z,5.60
2019-01-26T21:45:20.482Z,6.07
2019-01-26T21:50:38.479Z,7.43
2019-01-26T21:53:08.136Z,6.83
2019-01-26T22:01:08.955Z,6.10
2019-01-26T22:03:38.560Z,6.20
2019-01-26T22:06:07.990Z,6.27
2019-01-26T22:11:14.098Z,5.40
2019-01-26T22:13:55.742Z,6.30
2019-01-26T22:16:25.327Z,5.90
2019-01-26T22:18:54.792Z,8.03
2019-01-26T22:22:02.529Z,6.23
2019-01-26T22:30:13.096Z,7.93
2019-01-26T22:32:48.957Z,7.27
2019-01-26T22:35:37.586Z,6.67
2019-01-26T22:38:27.692Z,5.93
2019-01-26T22:41:01.244Z,6.60
2019-01-26T22:43:30.710Z,6.10
2019-01-26T22:46:34.402Z,4.90
2019-01-26T22:49:26.955Z,4.47
2019-01-26T22:51:44.403Z,4.33
2019-01-26T22:55:09.956Z,4.30
2019-01-26T22:57:46.028Z,4.27
2019-01-26T23:01:00.281Z,4.33
2019-01-26T23:04:06.544Z,5.00
2019-01-26T23:07:06.979Z,4.90
2019-01-26T23:10:32.020Z,4.83
2019-01-26T23:13:42.641Z,4.67
2019-01-26T23:16:51.639Z,5.17
2019-01-26T23:19:59.111Z,5.80
2019-01-26T23:25:57.867Z,5.47
2019-01-26T23:28:34.303Z,5.53
2019-01-26T23:31:23.002Z,5.73
2019-01-26T23:34:11.458Z,6.10
2019-01-26T23:37:04.228Z,5.27
2019-01-26T23:39:21.563Z,5.47
2019-01-26T23:41:51.623Z,5.27
2019-01-26T23:44:21.022Z,6.23
2019-01-26T23:46:50.526Z,6.50
2019-01-26T23:49:19.973Z,5.83
2019-01-26T23:52:08.389Z,6.30
2019-01-26T23:54:37.918Z,5.57
2019-01-26T23:57:07.349Z,7.23
2019-01-26T23:59:39.342Z,5.12
